createdAt,value
2018-07-06T00:00:40.161Z,-40.0
2018-07-06T00:01:41.809Z,-40.0
2018-07-06T00:02:43.472Z,-40.0
2018-07-06T00:03:45.141Z,-40.0
2018-07-06T00:04:46.813Z,-40.0
2018-07-06T00:05:48.476Z,-40.0
2018-07-06T00:06:50.138Z,-40.0
2018-07-06T00:07:51.805Z,-40.0
2018-07-06T00:08:53.473Z,-40.0
2018-07-06T00:09:55.136Z,-40.0
2018-07-06T00:10:56.817Z,-40.0
2018-07-06T00:11:58.456Z,-40.0
2018-07-06T00:13:00.119Z,-40.0
2018-07-06T00:14:01.778Z,-40.0
2018-07-06T00:15:03.435Z,-40.0
2018-07-06T00:16:05.097Z,-40.0
2018-07-06T00:17:06.795Z,-40.0
2018-07-06T00:18:08.454Z,-40.0
2018-07-06T00:19:10.115Z,-40.0
2018-07-06T00:20:11.772Z,-40.0
2018-07-06T00:21:13.431Z,-40.0
2018-07-06T00:22:15.098Z,-40.0
2018-07-06T00:23:16.760Z,-40.0
2018-07-06T00:24:18.435Z,-40.0
2018-07-06T00:25:20.098Z,-40.0
2018-07-06T00:26:21.762Z,-40.0
2018-07-06T00:27:23.433Z,-40.0
2018-07-06T00:28:25.094Z,-40.0
2018-07-06T00:29:26.745Z,-40.0
2018-07-06T00:30:28.415Z,-40.0
2018-07-06T00:31:30.072Z,-40.0
2018-07-06T00:32:31.736Z,-40.0
2018-07-06T00:33:33.399Z,-40.0
2018-07-06T00:34:35.058Z,-40.0
2018-07-06T00:35:36.726Z,-40.0
2018-07-06T00:36:38.394Z,-40.0
2018-07-06T00:37:40.059Z,-40.0
2018-07-06T00:38:41.719Z,-40.0
2018-07-06T00:39:43.390Z,-40.0
2018-07-06T00:40:45.058Z,-40.0
2018-07-06T00:41:46.720Z,-40.0
2018-07-06T00:42:48.410Z,-40.0
2018-07-06T00:43:50.098Z,-40.0
2018-07-06T00:44:51.764Z,-40.0
2018-07-06T00:45:53.410Z,-40.0
2018-07-06T00:46:55.080Z,-40.0
2018-07-06T00:47:56.740Z,-40.0
2018-07-06T00:48:58.398Z,-40.0
2018-07-06T00:50:00.060Z,-40.0
2018-07-06T00:51:01.738Z,-40.0
2018-07-06T00:52:03.408Z,-40.0
2018-07-06T00:53:05.081Z,-40.0
2018-07-06T00:54:06.758Z,-40.0
2018-07-06T00:55:08.415Z,-40.0
2018-07-06T00:56:10.073Z,-40.0
2018-07-06T00:57:11.750Z,-40.0
2018-07-06T00:58:13.399Z,-40.0
2018-07-06T00:59:15.056Z,-40.0
2018-07-06T01:00:16.730Z,-40.0
2018-07-06T01:01:18.393Z,-40.0
2018-07-06T01:02:20.053Z,-40.0
2018-07-06T01:03:21.716Z,-40.0
2018-07-06T01:04:23.378Z,-40.0
2018-07-06T01:05:25.061Z,-40.0
2018-07-06T01:06:26.725Z,-40.0
2018-07-06T01:07:28.395Z,-40.0
2018-07-06T01:08:30.062Z,-40.0
2018-07-06T01:09:31.721Z,-40.0
2018-07-06T01:10:33.384Z,-40.0
2018-07-06T01:11:35.044Z,-40.0
2018-07-06T01:12:36.714Z,-40.0
2018-07-06T01:13:38.375Z,-40.0
2018-07-06T01:14:40.038Z,-40.0
2018-07-06T01:16:04.932Z,-40.0
2018-07-06T01:17:06.623Z,-40.0
2018-07-06T01:18:08.276Z,-40.0
2018-07-06T01:19:09.976Z,-40.0
2018-07-06T01:20:11.650Z,-40.0
2018-07-06T01:21:13.319Z,-40.0
2018-07-06T01:22:14.974Z,-40.0
2018-07-06T01:23:16.645Z,-40.0
2018-07-06T01:24:18.307Z,-40.0
2018-07-06T01:25:19.974Z,-40.0
2018-07-06T01:26:21.634Z,-40.0
2018-07-06T01:27:23.296Z,-40.0
2018-07-06T01:28:24.976Z,-40.0
2018-07-06T01:29:27.523Z,-40.0
2018-07-06T01:30:29.190Z,-40.0
2018-07-06T01:31:30.843Z,-40.0
2018-07-06T01:32:32.503Z,-40.0
2018-07-06T01:33:34.166Z,-40.0
2018-07-06T01:34:35.818Z,-40.0
2018-07-06T01:35:37.481Z,-40.0
2018-07-06T01:36:39.143Z,-40.0
2018-07-06T01:37:40.799Z,-40.0
2018-07-06T01:38:42.460Z,-40.0
2018-07-06T01:39:44.125Z,-40.0
2018-07-06T01:40:45.786Z,-40.0
2018-07-06T01:41:47.464Z,-40.0
2018-07-06T01:42:49.144Z,-40.0
2018-07-06T01:43:50.813Z,-40.0
2018-07-06T01:44:52.480Z,-40.0
2018-07-06T01:45:54.140Z,-40.0
2018-07-06T01:46:55.811Z,-40.0
2018-07-06T01:47:57.477Z,-40.0
2018-07-06T01:48:59.132Z,-40.0
2018-07-06T01:50:00.805Z,-40.0
2018-07-06T01:51:02.461Z,-40.0
2018-07-06T01:52:04.128Z,-40.0
2018-07-06T01:53:05.811Z,-40.0
2018-07-06T01:54:07.467Z,-40.0
2018-07-06T01:55:09.116Z,-40.0
2018-07-06T02:01:01.820Z,14.0
2018-07-06T02:02:03.481Z,14.0
2018-07-06T02:03:55.372Z,14.1
2018-07-06T02:04:57.026Z,14.0
2018-07-06T02:06:48.943Z,14.1
2018-07-06T02:07:50.595Z,14.1
2018-07-06T02:09:42.500Z,14.0
2018-07-06T02:10:44.146Z,13.9
2018-07-06T02:11:45.799Z,13.9
2018-07-06T02:12:47.481Z,13.9
2018-07-06T02:13:49.128Z,13.9
2018-07-06T02:14:50.787Z,13.9
2018-07-06T02:15:52.435Z,13.8
2018-07-06T02:16:54.097Z,13.8
2018-07-06T02:17:55.756Z,13.7
2018-07-06T02:18:57.412Z,13.7
2018-07-06T02:19:59.063Z,13.7
2018-07-06T02:21:00.715Z,13.6
2018-07-06T02:22:02.367Z,13.7
2018-07-06T02:23:04.022Z,13.6
2018-07-06T02:24:05.685Z,13.6
2018-07-06T02:25:07.335Z,13.6
2018-07-06T02:26:08.993Z,13.6
2018-07-06T02:27:10.644Z,13.6
2018-07-06T02:28:12.300Z,13.6
2018-07-06T02:29:13.959Z,13.6
2018-07-06T02:30:15.617Z,13.4
2018-07-06T02:31:17.277Z,13.3
2018-07-06T02:32:18.931Z,13.4
2018-07-06T02:33:20.592Z,13.5
2018-07-06T02:34:22.250Z,13.5
2018-07-06T02:35:23.912Z,13.4
2018-07-06T02:36:25.560Z,13.5
2018-07-06T02:37:27.206Z,13.6
2018-07-06T02:38:28.877Z,13.5
2018-07-06T02:39:30.569Z,13.4
2018-07-06T02:40:32.185Z,13.4
2018-07-06T02:41:33.839Z,13.4
2018-07-06T02:42:35.488Z,13.3
2018-07-06T02:43:37.155Z,13.3
2018-07-06T02:44:38.805Z,13.3
2018-07-06T02:45:40.462Z,13.2
2018-07-06T02:46:42.113Z,13.3
2018-07-06T02:47:43.784Z,13.2
2018-07-06T02:48:45.443Z,13.2
2018-07-06T02:49:47.098Z,13.2
2018-07-06T02:50:48.770Z,13.2
2018-07-06T02:51:50.436Z,13.2
2018-07-06T02:52:52.091Z,13.2
2018-07-06T02:53:53.742Z,13.3
2018-07-06T02:54:55.408Z,13.4
2018-07-06T02:55:57.063Z,13.4
2018-07-06T02:56:58.723Z,13.4
2018-07-06T02:58:00.398Z,13.4
2018-07-06T02:59:02.050Z,13.5
2018-07-06T03:00:03.717Z,13.6
2018-07-06T03:01:05.374Z,13.6
2018-07-06T03:02:07.040Z,13.7
2018-07-06T03:03:08.697Z,13.6
2018-07-06T03:04:10.346Z,13.5
2018-07-06T03:05:12.007Z,13.5
2018-07-06T03:06:13.662Z,13.6
2018-07-06T03:07:15.319Z,13.5
2018-07-06T03:08:16.978Z,13.7
2018-07-06T03:09:18.632Z,13.7
2018-07-06T03:10:20.290Z,13.6
2018-07-06T03:11:21.963Z,13.6
2018-07-06T03:12:23.629Z,13.6
2018-07-06T03:13:25.279Z,13.7
2018-07-06T03:14:26.942Z,13.7
2018-07-06T03:15:28.600Z,13.6
2018-07-06T03:16:30.265Z,13.6
2018-07-06T03:17:31.917Z,13.6
2018-07-06T03:18:33.590Z,13.6
2018-07-06T03:19:35.249Z,13.7
2018-07-06T03:20:36.907Z,13.6
2018-07-06T03:21:38.581Z,13.7
2018-07-06T03:22:40.247Z,13.7
2018-07-06T03:23:41.900Z,13.7
2018-07-06T03:24:43.566Z,13.7
2018-07-06T03:26:04.206Z,13.7
2018-07-06T03:27:03.881Z,13.6
2018-07-06T03:28:05.578Z,13.7
2018-07-06T03:29:07.209Z,13.6
2018-07-06T03:30:08.863Z,13.6
2018-07-06T03:31:10.517Z,13.7
2018-07-06T03:32:12.185Z,13.6
2018-07-06T03:33:13.847Z,13.6
2018-07-06T03:34:15.523Z,13.7
2018-07-06T03:35:17.179Z,13.6
2018-07-06T03:36:18.845Z,13.7
2018-07-06T03:37:20.507Z,13.6
2018-07-06T03:38:22.165Z,13.6
2018-07-06T03:39:23.825Z,13.6
2018-07-06T03:40:25.500Z,13.6
2018-07-06T03:41:27.157Z,13.6
2018-07-06T03:42:28.824Z,13.7
2018-07-06T03:43:30.505Z,13.7
2018-07-06T03:44:32.150Z,13.8
2018-07-06T03:45:33.815Z,13.7
2018-07-06T03:46:35.476Z,13.7
2018-07-06T03:47:37.158Z,13.7
2018-07-06T03:48:38.807Z,13.7
2018-07-06T03:49:40.471Z,13.8
2018-07-06T03:50:42.132Z,13.8
2018-07-06T03:51:43.790Z,13.8
2018-07-06T03:52:45.446Z,13.9
2018-07-06T03:53:47.107Z,13.9
2018-07-06T03:54:48.781Z,13.8
2018-07-06T03:55:50.425Z,13.8
2018-07-06T03:56:52.093Z,13.9
2018-07-06T03:57:53.762Z,14.0
2018-07-06T03:58:55.423Z,14.0
2018-07-06T03:59:57.089Z,14.0
2018-07-06T04:00:58.778Z,14.0
2018-07-06T04:02:00.412Z,14.1
2018-07-06T04:03:02.073Z,14.0
2018-07-06T04:04:03.737Z,14.1
2018-07-06T04:05:05.400Z,14.1
2018-07-06T04:06:07.070Z,14.0
2018-07-06T04:07:08.734Z,14.0
2018-07-06T04:08:10.392Z,14.2
2018-07-06T04:09:12.081Z,14.2
2018-07-06T04:10:14.417Z,14.3
2018-07-06T04:11:16.076Z,14.3
2018-07-06T04:12:17.731Z,14.4
2018-07-06T04:13:19.405Z,14.6
2018-07-06T04:14:21.064Z,14.4
2018-07-06T04:15:22.727Z,14.4
2018-07-06T04:16:24.397Z,14.4
2018-07-06T04:17:26.058Z,14.5
2018-07-06T04:18:27.723Z,14.6
2018-07-06T04:19:29.383Z,14.6
2018-07-06T04:20:31.052Z,14.6
2018-07-06T04:21:32.708Z,14.5
2018-07-06T04:22:34.365Z,14.6
2018-07-06T04:23:36.034Z,14.6
2018-07-06T04:24:37.708Z,14.6
2018-07-06T04:25:39.370Z,14.8
2018-07-06T04:26:41.038Z,14.7
2018-07-06T04:27:42.711Z,14.7
2018-07-06T04:28:44.377Z,14.8
2018-07-06T04:29:46.046Z,14.9
2018-07-06T04:30:47.715Z,14.7
2018-07-06T04:31:49.376Z,14.8
2018-07-06T04:32:51.938Z,14.8
2018-07-06T04:33:53.595Z,14.9
2018-07-06T04:34:55.253Z,15.0
2018-07-06T04:35:56.920Z,14.9
2018-07-06T04:36:58.593Z,14.9
2018-07-06T04:38:00.267Z,14.9
2018-07-06T04:39:01.934Z,14.9
2018-07-06T04:40:03.596Z,15.0
2018-07-06T04:41:05.274Z,14.9
2018-07-06T04:42:06.961Z,14.9
2018-07-06T04:43:08.622Z,15.0
2018-07-06T04:44:10.338Z,15.0
2018-07-06T04:45:11.950Z,15.0
2018-07-06T04:46:13.633Z,14.9
2018-07-06T04:47:15.298Z,15.0
2018-07-06T04:48:16.961Z,15.1
2018-07-06T04:49:18.628Z,15.1
2018-07-06T04:50:20.288Z,15.1
2018-07-06T04:51:21.947Z,15.0
2018-07-06T04:52:23.607Z,15.1
2018-07-06T04:53:25.271Z,15.1
2018-07-06T04:54:26.935Z,15.3
2018-07-06T04:55:28.608Z,15.3
2018-07-06T04:56:30.274Z,15.3
2018-07-06T04:57:31.940Z,15.2
2018-07-06T04:58:33.595Z,15.2
2018-07-06T04:59:35.255Z,15.3
2018-07-06T05:00:36.914Z,15.3
2018-07-06T05:01:38.585Z,15.3
2018-07-06T05:02:40.253Z,15.1
2018-07-06T05:03:41.924Z,15.1
2018-07-06T05:04:43.574Z,15.1
2018-07-06T05:05:45.245Z,15.1
2018-07-06T05:06:46.926Z,15.3
2018-07-06T05:07:48.628Z,15.2
2018-07-06T05:08:50.255Z,15.2
2018-07-06T05:09:51.922Z,15.3
2018-07-06T05:10:53.596Z,15.3
2018-07-06T05:11:55.276Z,15.4
2018-07-06T05:12:56.929Z,15.5
2018-07-06T05:13:58.598Z,15.5
2018-07-06T05:15:00.279Z,15.5
2018-07-06T05:16:02.506Z,15.7
2018-07-06T05:17:04.245Z,15.6
2018-07-06T05:18:05.881Z,15.7
2018-07-06T05:19:07.505Z,15.7
2018-07-06T05:20:09.940Z,15.8
2018-07-06T05:21:11.604Z,15.8
2018-07-06T05:22:13.283Z,15.7
2018-07-06T05:23:14.952Z,15.8
2018-07-06T05:24:16.626Z,16.0
2018-07-06T05:25:18.283Z,16.0
2018-07-06T05:26:19.940Z,15.7
2018-07-06T05:27:21.615Z,15.7
2018-07-06T05:28:23.284Z,15.6
2018-07-06T05:29:24.956Z,15.6
2018-07-06T05:30:26.619Z,15.8
2018-07-06T05:31:28.289Z,15.9
2018-07-06T05:32:29.979Z,15.9
2018-07-06T05:33:31.647Z,15.7
2018-07-06T05:34:33.307Z,15.6
2018-07-06T05:35:34.979Z,15.6
2018-07-06T05:36:36.636Z,15.6
2018-07-06T05:37:38.302Z,15.6
2018-07-06T05:38:39.960Z,15.5
2018-07-06T05:39:42.471Z,15.5
2018-07-06T05:40:44.141Z,15.3
2018-07-06T05:41:45.825Z,15.4
2018-07-06T05:42:47.490Z,15.4
2018-07-06T05:43:49.180Z,15.4
2018-07-06T05:44:51.555Z,15.5
2018-07-06T05:45:53.983Z,15.5
2018-07-06T05:46:55.641Z,15.5
2018-07-06T05:47:57.316Z,15.5
2018-07-06T05:48:58.969Z,15.5
2018-07-06T05:50:00.627Z,15.4
2018-07-06T05:51:02.306Z,15.5
2018-07-06T05:52:03.962Z,15.6
2018-07-06T05:53:06.236Z,15.5
2018-07-06T05:54:07.241Z,15.5
2018-07-06T05:55:08.923Z,15.5
2018-07-06T06:01:50.576Z,15.7
2018-07-06T06:02:52.269Z,15.6
2018-07-06T06:03:53.951Z,15.7
2018-07-06T06:04:55.610Z,15.9
2018-07-06T06:05:57.272Z,15.9
2018-07-06T06:06:58.935Z,16.0
2018-07-06T06:08:00.600Z,16.2
2018-07-06T06:09:02.278Z,16.2
2018-07-06T06:10:03.950Z,16.0
2018-07-06T06:11:05.619Z,16.0
2018-07-06T06:12:07.301Z,16.0
2018-07-06T06:13:08.952Z,16.0
2018-07-06T06:14:10.612Z,16.2
2018-07-06T06:15:12.285Z,16.2
2018-07-06T06:16:13.956Z,16.4
2018-07-06T06:17:15.619Z,16.6
2018-07-06T06:18:17.285Z,16.8
2018-07-06T06:19:18.991Z,16.7
2018-07-06T06:20:20.650Z,16.6
2018-07-06T06:21:22.322Z,16.4
2018-07-06T06:22:24.745Z,16.4
2018-07-06T06:23:25.625Z,16.4
2018-07-06T06:24:27.286Z,16.5
2018-07-06T06:25:28.952Z,16.5
2018-07-06T06:26:30.635Z,16.6
2018-07-06T06:27:32.300Z,16.5
2018-07-06T06:28:33.961Z,16.7
2018-07-06T06:29:35.632Z,16.7
2018-07-06T06:30:37.453Z,16.8
2018-07-06T06:31:39.113Z,16.9
2018-07-06T06:32:40.789Z,16.9
2018-07-06T06:33:43.386Z,17.1
2018-07-06T06:34:44.985Z,17.2
2018-07-06T06:35:46.642Z,17.3
2018-07-06T06:36:48.318Z,17.3
2018-07-06T06:37:49.989Z,17.4
2018-07-06T06:38:51.649Z,17.7
2018-07-06T06:39:53.315Z,17.9
2018-07-06T06:40:54.981Z,18.2
2018-07-06T06:41:56.645Z,18.0
2018-07-06T06:42:58.317Z,17.8
2018-07-06T06:43:59.988Z,18.0
2018-07-06T06:45:02.180Z,17.9
2018-07-06T06:46:03.853Z,18.2
2018-07-06T06:47:05.520Z,18.5
2018-07-06T06:48:08.423Z,18.5
2018-07-06T06:49:10.096Z,18.0
2018-07-06T06:50:11.768Z,18.6
2018-07-06T06:51:13.462Z,18.6
2018-07-06T06:52:15.138Z,18.7
2018-07-06T06:53:16.807Z,18.4
2018-07-06T06:54:18.477Z,18.6
2018-07-06T06:55:20.149Z,19.3
2018-07-06T06:56:21.816Z,19.6
2018-07-06T06:57:23.493Z,19.5
2018-07-06T06:58:25.177Z,19.7
2018-07-06T06:59:27.708Z,20.1
2018-07-06T07:00:29.374Z,20.9
2018-07-06T07:01:31.049Z,20.8
2018-07-06T07:02:32.720Z,20.6
2018-07-06T07:03:34.388Z,20.9
2018-07-06T07:04:36.058Z,20.5
2018-07-06T07:05:37.729Z,20.6
2018-07-06T07:06:39.398Z,20.6
2018-07-06T07:07:41.085Z,21.2
2018-07-06T07:08:42.752Z,21.4
2018-07-06T07:09:44.410Z,22.0
2018-07-06T07:10:46.078Z,22.1
2018-07-06T07:11:47.751Z,21.7
2018-07-06T07:12:49.420Z,21.5
2018-07-06T07:13:51.145Z,20.9
2018-07-06T07:14:52.769Z,20.6
2018-07-06T07:15:54.444Z,20.6
2018-07-06T07:16:56.109Z,20.7
2018-07-06T07:17:57.776Z,20.2
2018-07-06T07:18:59.444Z,20.1
2018-07-06T07:20:01.234Z,20.6
2018-07-06T07:21:02.919Z,21.6
2018-07-06T07:22:04.566Z,21.2
2018-07-06T07:23:06.827Z,21.1
2018-07-06T07:24:08.490Z,21.2
2018-07-06T07:25:10.158Z,21.4
2018-07-06T07:26:11.836Z,21.3
2018-07-06T07:27:13.498Z,20.9
2018-07-06T07:28:15.167Z,21.8
2018-07-06T07:29:16.856Z,22.2
2018-07-06T07:30:18.529Z,22.6
2018-07-06T07:31:20.199Z,21.9
2018-07-06T07:32:21.870Z,22.2
2018-07-06T07:33:23.545Z,22.1
2018-07-06T07:34:25.219Z,21.4
2018-07-06T07:35:26.896Z,22.0
2018-07-06T07:36:28.562Z,23.2
2018-07-06T07:37:30.244Z,23.3
2018-07-06T07:38:32.802Z,23.0
2018-07-06T07:39:34.465Z,21.2
2018-07-06T07:40:36.138Z,21.2
2018-07-06T07:41:38.547Z,19.8
2018-07-06T07:42:40.222Z,20.1
2018-07-06T07:43:41.896Z,19.5
2018-07-06T07:44:43.564Z,19.3
2018-07-06T07:45:45.238Z,18.9
2018-07-06T07:46:46.903Z,18.4
2018-07-06T07:47:48.588Z,18.4
2018-07-06T07:48:50.261Z,18.2
2018-07-06T07:49:51.938Z,18.4
2018-07-06T07:50:53.593Z,17.9
2018-07-06T07:51:55.262Z,18.4
2018-07-06T07:52:56.928Z,18.4
2018-07-06T07:53:58.592Z,18.8
2018-07-06T07:55:00.282Z,18.5
2018-07-06T07:56:02.631Z,18.8
2018-07-06T07:57:04.300Z,18.6
2018-07-06T07:58:05.990Z,19.1
2018-07-06T07:59:08.317Z,19.1
2018-07-06T08:00:09.982Z,19.0
2018-07-06T08:01:12.592Z,19.7
2018-07-06T08:02:14.858Z,20.0
2018-07-06T08:03:16.542Z,20.6
2018-07-06T08:04:18.220Z,21.4
2018-07-06T08:05:19.909Z,21.2
2018-07-06T08:06:21.576Z,20.9
2018-07-06T08:07:23.248Z,21.2
2018-07-06T08:08:24.939Z,20.6
2018-07-06T08:09:26.612Z,21.2
2018-07-06T08:10:28.723Z,22.0
2018-07-06T08:11:35.444Z,22.5
2018-07-06T08:12:32.046Z,22.4
2018-07-06T08:13:33.721Z,22.5
2018-07-06T08:14:35.389Z,22.8
2018-07-06T08:15:37.063Z,22.6
2018-07-06T08:16:38.737Z,22.1
2018-07-06T08:17:40.416Z,21.6
2018-07-06T08:18:42.125Z,22.3
2018-07-06T08:19:43.786Z,22.1
2018-07-06T08:20:45.453Z,21.3
2018-07-06T08:21:47.116Z,21.5
2018-07-06T08:22:48.793Z,21.7
2018-07-06T08:23:50.532Z,20.8
2018-07-06T08:24:52.204Z,20.6
2018-07-06T08:25:53.873Z,20.7
2018-07-06T08:26:55.541Z,20.4
2018-07-06T08:27:57.257Z,20.1
2018-07-06T08:28:58.934Z,19.8
2018-07-06T08:30:00.594Z,19.8
2018-07-06T08:31:02.345Z,20.5
2018-07-06T08:32:04.010Z,21.7
2018-07-06T08:33:05.683Z,22.0
2018-07-06T08:34:07.356Z,22.4
2018-07-06T08:35:09.016Z,23.8
2018-07-06T08:36:10.788Z,24.1
2018-07-06T08:37:12.634Z,25.3
2018-07-06T08:38:14.303Z,25.5
2018-07-06T08:39:16.517Z,26.6
2018-07-06T08:40:18.193Z,26.3
2018-07-06T08:41:19.870Z,26.2
2018-07-06T08:42:21.564Z,25.8
2018-07-06T08:43:23.238Z,25.7
2018-07-06T08:44:24.913Z,26.4
2018-07-06T08:45:26.593Z,26.0
2018-07-06T08:46:29.178Z,25.5
2018-07-06T08:47:30.854Z,26.2
2018-07-06T08:48:32.527Z,26.5
2018-07-06T08:49:34.887Z,25.2
2018-07-06T08:50:36.567Z,24.5
2018-07-06T08:51:38.238Z,24.7
2018-07-06T08:52:39.909Z,24.2
2018-07-06T08:53:41.587Z,25.1
2018-07-06T08:54:43.270Z,25.7
2018-07-06T08:55:44.945Z,25.4
2018-07-06T08:56:46.621Z,24.4
2018-07-06T08:57:48.292Z,23.9
2018-07-06T08:58:49.949Z,23.9
2018-07-06T08:59:51.638Z,23.9
2018-07-06T09:00:53.316Z,23.8
2018-07-06T09:01:54.993Z,24.5
2018-07-06T09:02:56.668Z,24.9
2018-07-06T09:03:59.033Z,24.7
2018-07-06T09:05:00.707Z,23.6
2018-07-06T09:06:02.384Z,23.1
2018-07-06T09:07:04.064Z,23.1
2018-07-06T09:08:06.293Z,23.1
2018-07-06T09:09:07.383Z,23.8
2018-07-06T09:10:09.049Z,24.0
2018-07-06T09:11:10.721Z,24.1
2018-07-06T09:12:12.417Z,25.8
2018-07-06T09:13:14.143Z,24.7
2018-07-06T09:14:15.832Z,24.7
2018-07-06T09:15:17.514Z,24.8
2018-07-06T09:16:19.200Z,25.5
2018-07-06T09:17:20.867Z,24.7
2018-07-06T09:18:22.549Z,24.1
2018-07-06T09:19:24.250Z,23.6
2018-07-06T09:20:25.914Z,23.8
2018-07-06T09:21:27.588Z,24.1
2018-07-06T09:22:29.272Z,24.1
2018-07-06T09:23:30.993Z,24.3
2018-07-06T09:24:32.668Z,23.6
2018-07-06T09:25:34.387Z,23.9
2018-07-06T09:26:36.041Z,23.9
2018-07-06T09:27:37.712Z,25.7
2018-07-06T09:28:39.392Z,25.1
2018-07-06T09:29:41.065Z,25.7
2018-07-06T09:30:42.754Z,25.2
2018-07-06T09:31:44.442Z,23.9
2018-07-06T09:32:46.112Z,23.8
2018-07-06T09:33:47.808Z,23.9
2018-07-06T09:34:49.526Z,23.5
2018-07-06T09:35:51.242Z,22.7
2018-07-06T09:36:52.880Z,22.7
2018-07-06T09:37:54.559Z,22.2
2018-07-06T09:38:56.253Z,21.8
2018-07-06T09:39:57.974Z,22.8
2018-07-06T09:40:59.661Z,22.3
2018-07-06T09:42:01.336Z,22.7
2018-07-06T09:43:03.015Z,23.2
2018-07-06T09:44:04.732Z,22.6
2018-07-06T09:45:06.433Z,22.4
2018-07-06T09:46:08.114Z,22.1
2018-07-06T09:47:10.020Z,21.9
2018-07-06T09:48:12.500Z,21.4
2018-07-06T09:49:15.375Z,22.2
2018-07-06T09:50:27.288Z,21.8
2018-07-06T09:51:28.966Z,22.4
2018-07-06T09:52:30.672Z,22.3
2018-07-06T09:53:32.341Z,21.8
2018-07-06T09:54:34.022Z,21.4
2018-07-06T09:55:35.693Z,21.9
2018-07-06T10:01:31.030Z,22.7
2018-07-06T10:02:32.692Z,22.5
2018-07-06T10:04:25.492Z,22.6
2018-07-06T10:05:26.991Z,22.6
2018-07-06T10:06:28.670Z,22.7
2018-07-06T10:07:30.338Z,21.8
2018-07-06T10:08:32.006Z,22.8
2018-07-06T10:09:33.682Z,22.5
2018-07-06T10:10:35.345Z,21.6
2018-07-06T10:11:37.018Z,21.9
2018-07-06T10:12:38.797Z,21.3
2018-07-06T10:13:40.367Z,21.6
2018-07-06T10:14:42.029Z,21.8
2018-07-06T10:15:43.707Z,21.7
2018-07-06T10:16:45.416Z,22.4
2018-07-06T10:17:47.058Z,23.0
2018-07-06T10:18:48.727Z,22.7
2018-07-06T10:19:50.464Z,23.9
2018-07-06T10:20:52.077Z,25.0
2018-07-06T10:21:53.801Z,24.5
2018-07-06T10:22:55.427Z,24.4
2018-07-06T10:23:57.115Z,23.4
2018-07-06T10:24:58.788Z,24.5
2018-07-06T10:26:00.471Z,25.1
2018-07-06T10:27:02.161Z,25.2
2018-07-06T10:28:03.845Z,24.8
2018-07-06T10:29:05.506Z,26.2
2018-07-06T10:30:07.190Z,26.4
2018-07-06T10:31:08.872Z,27.2
2018-07-06T10:32:10.547Z,27.0
2018-07-06T10:33:12.254Z,26.4
2018-07-06T10:34:13.909Z,25.5
2018-07-06T10:35:15.594Z,25.0
2018-07-06T10:36:17.277Z,25.1
2018-07-06T10:37:18.965Z,26.0
2018-07-06T10:38:20.645Z,26.8
2018-07-06T10:39:22.366Z,25.1
2018-07-06T10:40:24.025Z,25.4
2018-07-06T10:41:25.703Z,24.8
2018-07-06T10:42:27.411Z,25.1
2018-07-06T10:43:29.081Z,24.4
2018-07-06T10:44:30.760Z,25.5
2018-07-06T10:45:32.442Z,24.5
2018-07-06T10:46:34.125Z,25.3
2018-07-06T10:47:35.808Z,26.2
2018-07-06T10:48:37.473Z,26.1
2018-07-06T10:49:39.156Z,25.5
2018-07-06T10:50:40.837Z,24.8
2018-07-06T10:51:42.518Z,25.7
2018-07-06T10:52:44.199Z,27.0
2018-07-06T10:53:45.888Z,26.8
2018-07-06T10:54:47.564Z,25.6
2018-07-06T10:55:49.248Z,24.8
2018-07-06T10:56:50.962Z,26.5
2018-07-06T10:57:52.636Z,27.3
2018-07-06T10:58:54.333Z,27.5
2018-07-06T10:59:56.011Z,27.9
2018-07-06T11:00:57.680Z,27.3
2018-07-06T11:01:59.358Z,27.8
2018-07-06T11:03:01.038Z,28.0
2018-07-06T11:04:02.719Z,25.3
2018-07-06T11:05:04.442Z,25.2
2018-07-06T11:06:06.122Z,25.4
2018-07-06T11:07:07.807Z,25.4
2018-07-06T11:08:09.496Z,25.7
2018-07-06T11:09:11.184Z,26.0
2018-07-06T11:10:12.870Z,27.0
2018-07-06T11:11:14.549Z,27.1
2018-07-06T11:12:16.980Z,27.2
2018-07-06T11:13:18.659Z,27.4
2018-07-06T11:14:21.328Z,25.8
2018-07-06T11:15:21.989Z,26.4
2018-07-06T11:16:23.670Z,24.6
2018-07-06T11:17:25.394Z,24.7
2018-07-06T11:18:27.939Z,25.7
2018-07-06T11:19:29.613Z,26.3
2018-07-06T11:20:31.317Z,26.1
2018-07-06T11:21:33.010Z,27.2
2018-07-06T11:22:34.677Z,28.3
2018-07-06T11:23:36.742Z,27.4
2018-07-06T11:24:38.558Z,26.7
2018-07-06T11:25:40.214Z,26.4
2018-07-06T11:26:42.441Z,26.4
2018-07-06T11:27:44.202Z,27.9
2018-07-06T11:28:45.875Z,28.8
2018-07-06T11:29:47.555Z,28.3
2018-07-06T11:30:49.237Z,29.2
2018-07-06T11:31:50.927Z,29.0
2018-07-06T11:32:52.618Z,28.0
2018-07-06T11:33:54.294Z,27.3
2018-07-06T11:34:55.992Z,27.3
2018-07-06T11:35:57.672Z,28.0
2018-07-06T11:36:59.358Z,28.4
2018-07-06T11:38:01.112Z,28.5
2018-07-06T11:39:02.716Z,28.3
2018-07-06T11:40:04.464Z,26.9
2018-07-06T11:41:06.188Z,27.6
2018-07-06T11:42:07.876Z,26.4
2018-07-06T11:43:09.564Z,27.3
2018-07-06T11:44:11.237Z,26.8
2018-07-06T11:45:12.947Z,27.0
2018-07-06T11:46:14.636Z,28.3
2018-07-06T11:47:16.275Z,29.3
2018-07-06T11:48:17.956Z,29.2
2018-07-06T11:49:19.637Z,29.1
2018-07-06T11:50:21.377Z,28.5
2018-07-06T11:51:23.014Z,28.4
2018-07-06T11:52:24.693Z,29.7
2018-07-06T11:53:26.393Z,27.6
2018-07-06T11:54:28.944Z,27.2
2018-07-06T11:55:30.624Z,27.9
2018-07-06T11:56:32.319Z,26.2
2018-07-06T11:57:33.995Z,27.1
2018-07-06T11:58:35.671Z,27.9
2018-07-06T11:59:37.363Z,28.1
2018-07-06T12:00:39.043Z,27.5
2018-07-06T12:01:40.723Z,27.9
2018-07-06T12:02:42.398Z,28.4
2018-07-06T12:03:45.209Z,28.2
2018-07-06T12:04:46.892Z,28.7
2018-07-06T12:05:49.418Z,28.4
2018-07-06T12:06:51.096Z,28.7
2018-07-06T12:07:52.768Z,30.0
2018-07-06T12:08:54.475Z,29.1
2018-07-06T12:09:56.159Z,30.5
2018-07-06T12:10:57.846Z,27.1
2018-07-06T12:11:59.517Z,27.0
2018-07-06T12:13:01.194Z,26.8
2018-07-06T12:14:02.881Z,27.5
2018-07-06T12:15:04.563Z,28.0
2018-07-06T12:16:06.270Z,28.1
2018-07-06T12:17:07.957Z,28.0
2018-07-06T12:18:09.647Z,29.2
2018-07-06T12:19:11.320Z,30.2
2018-07-06T12:20:13.007Z,29.3
2018-07-06T12:21:14.767Z,28.2
2018-07-06T12:22:16.329Z,27.9
2018-07-06T12:23:18.612Z,27.8
2018-07-06T12:24:20.283Z,26.7
2018-07-06T12:25:21.966Z,25.5
2018-07-06T12:26:23.651Z,25.7
2018-07-06T12:27:25.334Z,25.8
2018-07-06T12:28:27.023Z,26.6
2018-07-06T12:29:28.697Z,27.5
2018-07-06T12:30:30.374Z,26.6
2018-07-06T12:31:32.044Z,27.0
2018-07-06T12:32:33.724Z,28.2
2018-07-06T12:33:35.405Z,28.9
2018-07-06T12:34:37.092Z,28.0
2018-07-06T12:35:38.788Z,28.4
2018-07-06T12:36:40.487Z,28.4
2018-07-06T12:37:42.153Z,28.7
2018-07-06T12:38:43.828Z,29.4
2018-07-06T12:39:45.502Z,29.9
2018-07-06T12:40:47.895Z,28.9
2018-07-06T12:41:49.570Z,29.0
2018-07-06T12:42:51.254Z,29.6
2018-07-06T12:43:52.926Z,30.4
2018-07-06T12:44:54.602Z,30.8
2018-07-06T12:45:56.279Z,30.2
2018-07-06T12:46:57.962Z,29.8
2018-07-06T12:47:59.649Z,30.2
2018-07-06T12:49:01.344Z,28.4
2018-07-06T12:50:03.023Z,29.1
2018-07-06T12:51:05.260Z,28.9
2018-07-06T12:52:06.965Z,29.3
2018-07-06T12:53:08.641Z,28.8
2018-07-06T12:54:10.332Z,28.0
2018-07-06T12:55:12.011Z,28.7
2018-07-06T12:56:13.692Z,28.0
2018-07-06T12:57:15.366Z,28.5
2018-07-06T12:58:17.106Z,28.4
2018-07-06T12:59:19.606Z,27.8
2018-07-06T13:00:21.293Z,28.0
2018-07-06T13:01:22.971Z,29.0
2018-07-06T13:02:24.643Z,29.2
2018-07-06T13:03:26.318Z,27.5
2018-07-06T13:04:27.995Z,26.7
2018-07-06T13:05:29.673Z,26.5
2018-07-06T13:06:31.352Z,26.4
2018-07-06T13:07:33.029Z,26.2
2018-07-06T13:08:34.709Z,25.9
2018-07-06T13:09:36.385Z,26.3
2018-07-06T13:10:38.078Z,27.5
2018-07-06T13:11:39.768Z,28.1
2018-07-06T13:12:41.439Z,29.4
2018-07-06T13:13:43.115Z,29.8
2018-07-06T13:14:44.798Z,30.6
2018-07-06T13:15:46.524Z,29.5
2018-07-06T13:16:48.213Z,29.6
2018-07-06T13:17:49.892Z,30.7
2018-07-06T13:18:51.565Z,29.9
2018-07-06T13:19:53.265Z,31.6
2018-07-06T13:20:54.937Z,29.6
2018-07-06T13:21:56.615Z,27.6
2018-07-06T13:22:58.297Z,29.8
2018-07-06T13:23:59.977Z,29.9
2018-07-06T13:25:01.665Z,29.7
2018-07-06T13:26:03.349Z,29.6
2018-07-06T13:27:05.554Z,28.9
2018-07-06T13:28:08.125Z,29.2
2018-07-06T13:29:09.805Z,29.3
2018-07-06T13:30:11.475Z,29.5
2018-07-06T13:31:13.155Z,28.2
2018-07-06T13:32:14.837Z,26.5
2018-07-06T13:33:16.520Z,26.7
2018-07-06T13:34:19.001Z,26.1
2018-07-06T13:35:20.677Z,26.1
2018-07-06T13:36:22.360Z,26.0
2018-07-06T13:37:24.041Z,27.0
2018-07-06T13:38:25.723Z,27.1
2018-07-06T13:39:27.442Z,27.4
2018-07-06T13:40:29.120Z,26.6
2018-07-06T13:41:30.794Z,26.7
2018-07-06T13:42:32.495Z,26.4
2018-07-06T13:43:34.180Z,26.4
2018-07-06T13:44:35.869Z,26.0
2018-07-06T13:45:37.553Z,25.9
2018-07-06T13:46:39.234Z,26.3
2018-07-06T13:47:40.907Z,25.8
2018-07-06T13:48:42.581Z,26.0
2018-07-06T13:49:44.257Z,26.0
2018-07-06T13:50:45.944Z,24.9
2018-07-06T13:51:47.608Z,24.9
2018-07-06T13:52:49.271Z,24.6
2018-07-06T13:53:50.948Z,24.8
2018-07-06T13:54:52.627Z,24.4
2018-07-06T14:01:03.710Z,24.1
2018-07-06T14:02:05.380Z,23.8